sensor_id;sensor_type;location;lat;lon;timestamp;pressure;altitude;pressure_sealevel;temperature;humidity
28588;BME280;15787;49.662;10.162;2023-05-21T00:00:32;98836.63;;;16.33;100.00
28588;BME280;15787;49.662;10.162;2023-05-21T00:03:05;98840.09;;;16.28;100.00
28588;BME280;15787;49.662;10.162;2023-05-21T00:05:44;98839.44;;;16.42;100.00
28588;BME280;15787;49.662;10.162;2023-05-21T00:08:17;98836.44;;;16.55;100.00
28588;BME280;15787;49.662;10.162;2023-05-21T00:10:52;98830.97;;;16.42;100.00
28588;BME280;15787;49.662;10.162;2023-05-21T00:13:24;98828.59;;;16.50;100.00
28588;BME280;15787;49.662;10.162;2023-05-21T00:15:57;98826.63;;;16.32;100.00
28588;BME280;15787;49.662;10.162;2023-05-21T00:18:30;98826.81;;;16.19;100.00
28588;BME280;15787;49.662;10.162;2023-05-21T00:21:04;98826.47;;;16.26;100.00
28588;BME280;15787;49.662;10.162;2023-05-21T00:23:38;98825.84;;;16.31;100.00
28588;BME280;15787;49.662;10.162;2023-05-21T00:26:14;98819.13;;;16.29;100.00
28588;BME280;15787;49.662;10.162;2023-05-21T00:28:48;98826.09;;;16.42;100.00
28588;BME280;15787;49.662;10.162;2023-05-21T00:31:21;98823.69;;;16.17;100.00
28588;BME280;15787;49.662;10.162;2023-05-21T00:33:54;98815.00;;;16.39;100.00
28588;BME280;15787;49.662;10.162;2023-05-21T00:36:27;98811.44;;;16.29;100.00
28588;BME280;15787;49.662;10.162;2023-05-21T00:39:01;98813.44;;;16.38;99.99
28588;BME280;15787;49.662;10.162;2023-05-21T00:41:36;98817.31;;;16.50;99.11
28588;BME280;15787;49.662;10.162;2023-05-21T00:44:10;98818.97;;;16.23;99.35
28588;BME280;15787;49.662;10.162;2023-05-21T00:46:44;98819.06;;;15.87;100.00
28588;BME280;15787;49.662;10.162;2023-05-21T00:49:20;98812.31;;;16.12;100.00
28588;BME280;15787;49.662;10.162;2023-05-21T00:51:55;98801.94;;;16.18;100.00
28588;BME280;15787;49.662;10.162;2023-05-21T00:54:29;98806.81;;;16.08;100.00
28588;BME280;15787;49.662;10.162;2023-05-21T00:57:04;98805.75;;;15.97;100.00
28588;BME280;15787;49.662;10.162;2023-05-21T00:59:37;98808.94;;;15.80;100.00
28588;BME280;15787;49.662;10.162;2023-05-21T01:02:11;98804.84;;;15.91;100.00
28588;BME280;15787;49.662;10.162;2023-05-21T01:04:45;98802.34;;;15.84;100.00
28588;BME280;15787;49.662;10.162;2023-05-21T01:07:18;98802.50;;;15.80;100.00
28588;BME280;15787;49.662;10.162;2023-05-21T01:09:51;98807.31;;;15.98;100.00
28588;BME280;15787;49.662;10.162;2023-05-21T01:12:26;98805.88;;;16.02;100.00
28588;BME280;15787;49.662;10.162;2023-05-21T01:14:59;98806.47;;;16.15;100.00
28588;BME280;15787;49.662;10.162;2023-05-21T01:17:34;98809.00;;;16.04;100.00
28588;BME280;15787;49.662;10.162;2023-05-21T01:20:07;98799.34;;;15.96;100.00
28588;BME280;15787;49.662;10.162;2023-05-21T01:22:47;98796.69;;;15.93;100.00
28588;BME280;15787;49.662;10.162;2023-05-21T01:25:21;98795.75;;;15.96;100.00
28588;BME280;15787;49.662;10.162;2023-05-21T01:27:54;98796.84;;;15.89;100.00
28588;BME280;15787;49.662;10.162;2023-05-21T01:30:28;98791.69;;;15.88;100.00
28588;BME280;15787;49.662;10.162;2023-05-21T01:33:03;98783.94;;;15.73;100.00
28588;BME280;15787;49.662;10.162;2023-05-21T01:35:43;98789.38;;;15.77;100.00
28588;BME280;15787;49.662;10.162;2023-05-21T01:38:23;98783.25;;;15.88;100.00
28588;BME280;15787;49.662;10.162;2023-05-21T01:41:01;98788.84;;;15.97;100.00
28588;BME280;15787;49.662;10.162;2023-05-21T01:43:37;98788.31;;;15.65;100.00
28588;BME280;15787;49.662;10.162;2023-05-21T01:46:14;98785.59;;;15.89;100.00
28588;BME280;15787;49.662;10.162;2023-05-21T01:48:49;98788.25;;;15.93;100.00
28588;BME280;15787;49.662;10.162;2023-05-21T01:51:24;98795.31;;;15.88;100.00
28588;BME280;15787;49.662;10.162;2023-05-21T01:54:00;98784.22;;;15.66;100.00
28588;BME280;15787;49.662;10.162;2023-05-21T01:56:33;98781.22;;;15.79;100.00
28588;BME280;15787;49.662;10.162;2023-05-21T01:59:07;98791.44;;;15.67;100.00
28588;BME280;15787;49.662;10.162;2023-05-21T02:01:40;98785.97;;;15.55;100.00
28588;BME280;15787;49.662;10.162;2023-05-21T02:04:13;98790.97;;;15.42;100.00
28588;BME280;15787;49.662;10.162;2023-05-21T02:06:46;98778.00;;;15.26;100.00
28588;BME280;15787;49.662;10.162;2023-05-21T02:09:20;98789.72;;;15.25;100.00
28588;BME280;15787;49.662;10.162;2023-05-21T02:11:54;98783.31;;;15.24;100.00
28588;BME280;15787;49.662;10.162;2023-05-21T02:14:27;98787.50;;;15.10;100.00
28588;BME280;15787;49.662;10.162;2023-05-21T02:17:01;98784.88;;;15.07;100.00
28588;BME280;15787;49.662;10.162;2023-05-21T02:19:34;98784.69;;;15.10;100.00
28588;BME280;15787;49.662;10.162;2023-05-21T02:22:07;98776.28;;;15.10;100.00
28588;BME280;15787;49.662;10.162;2023-05-21T02:24:41;98771.13;;;15.09;100.00
28588;BME280;15787;49.662;10.162;2023-05-21T02:27:14;98775.03;;;15.11;100.00
28588;BME280;15787;49.662;10.162;2023-05-21T02:29:48;98779.72;;;15.14;100.00
28588;BME280;15787;49.662;10.162;2023-05-21T02:32:21;98772.69;;;15.10;100.00
28588;BME280;15787;49.662;10.162;2023-05-21T02:34:54;98776.91;;;14.96;100.00
28588;BME280;15787;49.662;10.162;2023-05-21T02:37:27;98776.88;;;15.05;100.00
28588;BME280;15787;49.662;10.162;2023-05-21T02:40:02;98773.47;;;15.01;100.00
28588;BME280;15787;49.662;10.162;2023-05-21T02:42:37;98764.41;;;14.97;100.00
28588;BME280;15787;49.662;10.162;2023-05-21T02:45:15;98770.03;;;15.06;100.00
28588;BME280;15787;49.662;10.162;2023-05-21T02:47:48;98769.25;;;15.24;100.00
28588;BME280;15787;49.662;10.162;2023-05-21T02:50:22;98767.19;;;15.15;100.00
28588;BME280;15787;49.662;10.162;2023-05-21T02:53:00;98770.97;;;15.03;100.00
28588;BME280;15787;49.662;10.162;2023-05-21T02:55:35;98766.13;;;15.13;100.00
28588;BME280;15787;49.662;10.162;2023-05-21T02:58:08;98767.69;;;15.14;100.00
28588;BME280;15787;49.662;10.162;2023-05-21T03:00:44;98765.66;;;15.05;100.00
28588;BME280;15787;49.662;10.162;2023-05-21T03:03:17;98760.97;;;15.02;100.00
28588;BME280;15787;49.662;10.162;2023-05-21T03:05:51;98757.84;;;15.18;100.00
28588;BME280;15787;49.662;10.162;2023-05-21T03:08:24;98767.66;;;15.23;100.00
28588;BME280;15787;49.662;10.162;2023-05-21T03:10:58;98769.88;;;15.37;100.00
28588;BME280;15787;49.662;10.162;2023-05-21T03:13:31;98761.13;;;15.26;100.00
28588;BME280;15787;49.662;10.162;2023-05-21T03:16:04;98757.06;;;15.09;100.00
28588;BME280;15787;49.662;10.162;2023-05-21T03:18:37;98756.25;;;15.36;100.00
28588;BME280;15787;49.662;10.162;2023-05-21T03:21:11;98756.75;;;15.25;100.00
28588;BME280;15787;49.662;10.162;2023-05-21T03:23:49;98757.38;;;15.47;100.00
28588;BME280;15787;49.662;10.162;2023-05-21T03:26:23;98754.88;;;15.49;100.00
28588;BME280;15787;49.662;10.162;2023-05-21T03:28:58;98766.63;;;15.48;100.00
28588;BME280;15787;49.662;10.162;2023-05-21T03:31:32;98767.69;;;15.32;100.00
28588;BME280;15787;49.662;10.162;2023-05-21T03:34:11;98767.22;;;15.61;100.00
28588;BME280;15787;49.662;10.162;2023-05-21T03:36:44;98767.22;;;15.52;100.00
28588;BME280;15787;49.662;10.162;2023-05-21T03:39:19;98769.25;;;15.42;100.00
28588;BME280;15787;49.662;10.162;2023-05-21T03:41:53;98775.34;;;15.50;100.00
28588;BME280;15787;49.662;10.162;2023-05-21T03:44:35;98767.53;;;15.54;100.00
28588;BME280;15787;49.662;10.162;2023-05-21T03:47:43;98772.22;;;15.66;100.00
28588;BME280;15787;49.662;10.162;2023-05-21T03:50:16;98772.34;;;15.71;100.00
28588;BME280;15787;49.662;10.162;2023-05-21T03:52:49;98773.59;;;15.61;100.00
28588;BME280;15787;49.662;10.162;2023-05-21T03:55:22;98780.31;;;15.64;100.00
28588;BME280;15787;49.662;10.162;2023-05-21T03:57:56;98779.34;;;15.85;100.00
28588;BME280;15787;49.662;10.162;2023-05-21T04:00:29;98781.56;;;15.81;100.00
28588;BME280;15787;49.662;10.162;2023-05-21T04:03:03;98783.00;;;15.67;100.00
28588;BME280;15787;49.662;10.162;2023-05-21T04:05:37;98782.50;;;15.78;100.00
28588;BME280;15787;49.662;10.162;2023-05-21T04:08:10;98775.94;;;15.72;100.00
28588;BME280;15787;49.662;10.162;2023-05-21T04:10:44;98779.31;;;15.94;100.00
28588;BME280;15787;49.662;10.162;2023-05-21T04:13:18;98785.88;;;16.09;100.00
28588;BME280;15787;49.662;10.162;2023-05-21T04:15:52;98783.50;;;16.08;100.00
28588;BME280;15787;49.662;10.162;2023-05-21T04:18:25;98786.63;;;16.10;100.00
28588;BME280;15787;49.662;10.162;2023-05-21T04:20:57;98784.44;;;16.14;100.00
28588;BME280;15787;49.662;10.162;2023-05-21T04:23:31;98784.38;;;16.32;100.00
28588;BME280;15787;49.662;10.162;2023-05-21T04:26:11;98789.22;;;16.22;100.00
28588;BME280;15787;49.662;10.162;2023-05-21T04:28:47;98782.88;;;16.45;100.00
28588;BME280;15787;49.662;10.162;2023-05-21T04:31:21;98781.34;;;16.35;100.00
28588;BME280;15787;49.662;10.162;2023-05-21T04:33:54;98796.44;;;16.65;100.00
28588;BME280;15787;49.662;10.162;2023-05-21T04:36:27;98792.28;;;16.42;100.00
28588;BME280;15787;49.662;10.162;2023-05-21T04:39:00;98783.97;;;16.48;99.52
28588;BME280;15787;49.662;10.162;2023-05-21T04:41:37;98786.53;;;16.70;99.11
28588;BME280;15787;49.662;10.162;2023-05-21T04:44:11;98796.03;;;16.81;98.61
28588;BME280;15787;49.662;10.162;2023-05-21T04:46:47;98799.47;;;16.85;97.99
28588;BME280;15787;49.662;10.162;2023-05-21T04:49:21;98799.50;;;17.00;97.85
28588;BME280;15787;49.662;10.162;2023-05-21T04:51:54;98796.84;;;16.96;97.22
28588;BME280;15787;49.662;10.162;2023-05-21T04:54:28;98794.03;;;16.96;97.25
28588;BME280;15787;49.662;10.162;2023-05-21T04:57:01;98789.66;;;16.95;97.60
28588;BME280;15787;49.662;10.162;2023-05-21T04:59:35;98789.50;;;16.75;98.67
28588;BME280;15787;49.662;10.162;2023-05-21T05:02:08;98797.28;;;17.04;98.53
28588;BME280;15787;49.662;10.162;2023-05-21T05:04:41;98798.19;;;17.10;98.13
28588;BME280;15787;49.662;10.162;2023-05-21T05:07:14;98796.19;;;17.25;98.02
28588;BME280;15787;49.662;10.162;2023-05-21T05:09:47;98805.63;;;17.37;97.65
28588;BME280;15787;49.662;10.162;2023-05-21T05:12:20;98800.66;;;17.32;97.68
28588;BME280;15787;49.662;10.162;2023-05-21T05:14:54;98801.13;;;17.16;98.42
28588;BME280;15787;49.662;10.162;2023-05-21T05:17:27;98795.38;;;17.48;97.62
28588;BME280;15787;49.662;10.162;2023-05-21T05:20:02;98792.94;;;17.41;97.60
28588;BME280;15787;49.662;10.162;2023-05-21T05:22:35;98796.72;;;17.38;98.17
28588;BME280;15787;49.662;10.162;2023-05-21T05:25:08;98794.63;;;17.62;97.37
28588;BME280;15787;49.662;10.162;2023-05-21T05:27:41;98794.44;;;17.66;97.64
28588;BME280;15787;49.662;10.162;2023-05-21T05:30:16;98790.25;;;17.91;96.48
28588;BME280;15787;49.662;10.162;2023-05-21T05:32:49;98791.53;;;18.04;95.45
28588;BME280;15787;49.662;10.162;2023-05-21T05:35:22;98795.91;;;18.05;94.53
28588;BME280;15787;49.662;10.162;2023-05-21T05:37:55;98798.56;;;17.80;94.37
28588;BME280;15787;49.662;10.162;2023-05-21T05:40:28;98798.16;;;17.87;94.73
28588;BME280;15787;49.662;10.162;2023-05-21T05:43:01;98793.97;;;18.11;94.40
28588;BME280;15787;49.662;10.162;2023-05-21T05:45:35;98791.13;;;18.26;93.63
28588;BME280;15787;49.662;10.162;2023-05-21T05:48:14;98780.59;;;18.26;93.44
28588;BME280;15787;49.662;10.162;2023-05-21T05:50:48;98789.75;;;18.51;93.05
28588;BME280;15787;49.662;10.162;2023-05-21T05:53:26;98777.94;;;18.38;93.71
28588;BME280;15787;49.662;10.162;2023-05-21T05:56:00;98777.84;;;18.32;93.45
28588;BME280;15787;49.662;10.162;2023-05-21T05:58:34;98785.66;;;18.72;91.97
28588;BME280;15787;49.662;10.162;2023-05-21T06:01:14;98776.13;;;18.69;92.87
28588;BME280;15787;49.662;10.162;2023-05-21T06:03:48;98781.81;;;18.89;90.85
28588;BME280;15787;49.662;10.162;2023-05-21T06:06:24;98787.09;;;18.82;89.78
28588;BME280;15787;49.662;10.162;2023-05-21T06:08:57;98780.97;;;19.24;90.06
28588;BME280;15787;49.662;10.162;2023-05-21T06:11:30;98786.72;;;19.29;89.54
28588;BME280;15787;49.662;10.162;2023-05-21T06:14:03;98787.47;;;19.30;88.38
28588;BME280;15787;49.662;10.162;2023-05-21T06:16:37;98783.22;;;19.40;87.08
28588;BME280;15787;49.662;10.162;2023-05-21T06:19:10;98779.34;;;19.58;86.54
28588;BME280;15787;49.662;10.162;2023-05-21T06:21:44;98779.50;;;20.00;86.41
28588;BME280;15787;49.662;10.162;2023-05-21T06:24:16;98784.16;;;20.03;84.71
28588;BME280;15787;49.662;10.162;2023-05-21T06:26:50;98783.59;;;19.99;84.96
28588;BME280;15787;49.662;10.162;2023-05-21T06:29:23;98780.34;;;19.80;84.31
28588;BME280;15787;49.662;10.162;2023-05-21T06:31:57;98775.91;;;20.31;84.03
28588;BME280;15787;49.662;10.162;2023-05-21T06:34:33;98772.06;;;20.34;82.44
28588;BME280;15787;49.662;10.162;2023-05-21T06:37:06;98777.91;;;20.56;81.03
28588;BME280;15787;49.662;10.162;2023-05-21T06:39:39;98773.97;;;20.48;79.75
28588;BME280;15787;49.662;10.162;2023-05-21T06:42:12;98769.81;;;20.86;79.46
28588;BME280;15787;49.662;10.162;2023-05-21T06:44:56;98770.78;;;21.19;78.35
28588;BME280;15787;49.662;10.162;2023-05-21T06:47:35;98776.09;;;21.01;77.86
28588;BME280;15787;49.662;10.162;2023-05-21T06:50:08;98771.34;;;21.29;78.12
28588;BME280;15787;49.662;10.162;2023-05-21T06:52:41;98777.81;;;21.29;75.93
28588;BME280;15787;49.662;10.162;2023-05-21T06:55:14;98760.38;;;21.75;76.48
28588;BME280;15787;49.662;10.162;2023-05-21T06:58:06;98774.03;;;21.71;75.86
28588;BME280;15787;49.662;10.162;2023-05-21T07:00:39;98775.09;;;21.85;76.37
28588;BME280;15787;49.662;10.162;2023-05-21T07:03:14;98782.38;;;21.86;75.24
28588;BME280;15787;49.662;10.162;2023-05-21T07:05:48;98781.53;;;21.63;73.99
28588;BME280;15787;49.662;10.162;2023-05-21T07:08:21;98781.19;;;21.39;75.33
28588;BME280;15787;49.662;10.162;2023-05-21T07:10:56;98773.97;;;21.49;75.03
28588;BME280;15787;49.662;10.162;2023-05-21T07:13:30;98777.34;;;21.59;75.68
28588;BME280;15787;49.662;10.162;2023-05-21T07:16:03;98778.94;;;21.76;75.29
28588;BME280;15787;49.662;10.162;2023-05-21T07:18:38;98775.94;;;21.96;73.75
28588;BME280;15787;49.662;10.162;2023-05-21T07:21:11;98784.38;;;21.63;73.28
28588;BME280;15787;49.662;10.162;2023-05-21T07:23:43;98781.34;;;22.22;72.95
28588;BME280;15787;49.662;10.162;2023-05-21T07:26:16;98788.34;;;21.93;72.89
28588;BME280;15787;49.662;10.162;2023-05-21T07:28:49;98787.56;;;22.15;72.94
28588;BME280;15787;49.662;10.162;2023-05-21T07:31:23;98780.84;;;22.01;72.32
28588;BME280;15787;49.662;10.162;2023-05-21T07:33:58;98784.41;;;21.80;73.07
28588;BME280;15787;49.662;10.162;2023-05-21T07:36:34;98777.13;;;21.68;72.60
28588;BME280;15787;49.662;10.162;2023-05-21T07:39:07;98779.19;;;21.62;72.66
28588;BME280;15787;49.662;10.162;2023-05-21T07:41:41;98773.28;;;21.71;73.95
28588;BME280;15787;49.662;10.162;2023-05-21T07:44:14;98776.09;;;21.60;73.96
28588;BME280;15787;49.662;10.162;2023-05-21T07:46:49;98770.75;;;21.89;72.97
28588;BME280;15787;49.662;10.162;2023-05-21T07:49:24;98774.53;;;21.64;72.98
28588;BME280;15787;49.662;10.162;2023-05-21T07:51:58;98766.72;;;21.37;74.47
28588;BME280;15787;49.662;10.162;2023-05-21T07:54:30;98774.13;;;21.99;73.96
28588;BME280;15787;49.662;10.162;2023-05-21T07:57:04;98767.94;;;22.06;72.69
28588;BME280;15787;49.662;10.162;2023-05-21T07:59:54;98770.00;;;22.11;71.52
28588;BME280;15787;49.662;10.162;2023-05-21T08:02:27;98765.34;;;22.41;71.24
28588;BME280;15787;49.662;10.162;2023-05-21T08:05:02;98775.91;;;22.30;71.22
28588;BME280;15787;49.662;10.162;2023-05-21T08:07:35;98764.78;;;22.54;71.46
28588;BME280;15787;49.662;10.162;2023-05-21T08:10:08;98764.81;;;22.65;68.18
28588;BME280;15787;49.662;10.162;2023-05-21T08:12:42;98769.00;;;23.38;70.17
28588;BME280;15787;49.662;10.162;2023-05-21T08:15:16;98778.59;;;23.24;67.45
28588;BME280;15787;49.662;10.162;2023-05-21T08:17:50;98782.75;;;23.28;66.56
28588;BME280;15787;49.662;10.162;2023-05-21T08:20:25;98781.69;;;23.37;66.62
28588;BME280;15787;49.662;10.162;2023-05-21T08:22:59;98779.69;;;24.14;65.90
28588;BME280;15787;49.662;10.162;2023-05-21T08:25:37;98784.06;;;24.74;64.62
28588;BME280;15787;49.662;10.162;2023-05-21T08:28:10;98781.19;;;24.80;63.60
28588;BME280;15787;49.662;10.162;2023-05-21T08:30:44;98776.72;;;25.08;62.92
28588;BME280;15787;49.662;10.162;2023-05-21T08:33:17;98785.59;;;25.05;62.57
28588;BME280;15787;49.662;10.162;2023-05-21T08:35:53;98771.91;;;25.41;61.22
28588;BME280;15787;49.662;10.162;2023-05-21T08:38:31;98772.13;;;25.24;63.42
28588;BME280;15787;49.662;10.162;2023-05-21T08:41:12;98775.13;;;25.13;62.29
28588;BME280;15787;49.662;10.162;2023-05-21T08:43:47;98777.84;;;24.16;62.69
28588;BME280;15787;49.662;10.162;2023-05-21T08:46:22;98770.25;;;24.54;61.86
28588;BME280;15787;49.662;10.162;2023-05-21T08:48:56;98772.66;;;24.74;61.11
28588;BME280;15787;49.662;10.162;2023-05-21T08:51:32;98762.22;;;24.82;62.20
28588;BME280;15787;49.662;10.162;2023-05-21T08:54:06;98775.31;;;24.67;62.20
28588;BME280;15787;49.662;10.162;2023-05-21T08:56:42;98773.97;;;24.73;61.52
28588;BME280;15787;49.662;10.162;2023-05-21T08:59:21;98771.13;;;24.73;60.43
28588;BME280;15787;49.662;10.162;2023-05-21T09:01:54;98777.66;;;24.68;59.58
28588;BME280;15787;49.662;10.162;2023-05-21T09:04:35;98767.78;;;25.60;59.09
28588;BME280;15787;49.662;10.162;2023-05-21T09:07:11;98773.16;;;25.27;57.20
28588;BME280;15787;49.662;10.162;2023-05-21T09:10:07;98774.66;;;24.85;57.27
28588;BME280;15787;49.662;10.162;2023-05-21T09:12:44;98770.94;;;25.94;59.91
28588;BME280;15787;49.662;10.162;2023-05-21T09:15:20;98778.03;;;25.07;56.24
28588;BME280;15787;49.662;10.162;2023-05-21T09:17:53;98775.03;;;25.61;57.71
28588;BME280;15787;49.662;10.162;2023-05-21T09:20:55;98757.03;;;26.35;56.99
28588;BME280;15787;49.662;10.162;2023-05-21T09:23:31;98761.06;;;26.72;57.65
28588;BME280;15787;49.662;10.162;2023-05-21T09:26:09;98764.19;;;26.42;55.56
28588;BME280;15787;49.662;10.162;2023-05-21T09:28:44;98771.34;;;25.85;55.53
28588;BME280;15787;49.662;10.162;2023-05-21T09:31:17;98775.97;;;26.83;55.90
28588;BME280;15787;49.662;10.162;2023-05-21T09:33:50;98766.31;;;26.55;56.00
28588;BME280;15787;49.662;10.162;2023-05-21T09:36:27;98774.28;;;26.62;56.93
28588;BME280;15787;49.662;10.162;2023-05-21T09:39:04;98771.69;;;26.45;53.58
28588;BME280;15787;49.662;10.162;2023-05-21T09:41:41;98768.63;;;25.74;53.20
28588;BME280;15787;49.662;10.162;2023-05-21T09:44:17;98774.66;;;25.70;54.20
28588;BME280;15787;49.662;10.162;2023-05-21T09:46:55;98768.66;;;26.56;53.82
28588;BME280;15787;49.662;10.162;2023-05-21T09:49:29;98780.28;;;25.14;54.40
28588;BME280;15787;49.662;10.162;2023-05-21T09:52:04;98771.06;;;26.02;54.94
28588;BME280;15787;49.662;10.162;2023-05-21T09:54:38;98761.78;;;26.14;55.63
28588;BME280;15787;49.662;10.162;2023-05-21T09:57:14;98769.88;;;26.74;55.24
28588;BME280;15787;49.662;10.162;2023-05-21T09:59:49;98772.13;;;26.94;54.45
28588;BME280;15787;49.662;10.162;2023-05-21T10:02:23;98767.75;;;26.48;54.20
28588;BME280;15787;49.662;10.162;2023-05-21T10:04:57;98760.47;;;25.97;53.83
28588;BME280;15787;49.662;10.162;2023-05-21T10:07:31;98759.25;;;26.11;54.20
28588;BME280;15787;49.662;10.162;2023-05-21T10:10:11;98766.16;;;26.34;52.21
28588;BME280;15787;49.662;10.162;2023-05-21T10:12:46;98750.66;;;27.40;54.62
28588;BME280;15787;49.662;10.162;2023-05-21T10:15:22;98761.31;;;27.26;54.24
28588;BME280;15787;49.662;10.162;2023-05-21T10:17:56;98756.25;;;27.45;53.11
28588;BME280;15787;49.662;10.162;2023-05-21T10:20:31;98753.34;;;28.05;51.81
28588;BME280;15787;49.662;10.162;2023-05-21T10:23:05;98764.34;;;28.76;53.31
28588;BME280;15787;49.662;10.162;2023-05-21T10:25:40;98757.69;;;28.81;51.19
28588;BME280;15787;49.662;10.162;2023-05-21T10:28:15;98755.34;;;29.01;50.46
28588;BME280;15787;49.662;10.162;2023-05-21T10:30:49;98745.22;;;27.23;49.22
28588;BME280;15787;49.662;10.162;2023-05-21T10:33:22;98751.09;;;28.73;49.40
28588;BME280;15787;49.662;10.162;2023-05-21T10:35:57;98747.88;;;28.15;49.59
28588;BME280;15787;49.662;10.162;2023-05-21T10:38:31;98745.81;;;29.13;49.95
28588;BME280;15787;49.662;10.162;2023-05-21T10:41:07;98743.91;;;28.18;49.53
28588;BME280;15787;49.662;10.162;2023-05-21T10:43:52;98747.97;;;28.64;49.48
28588;BME280;15787;49.662;10.162;2023-05-21T10:46:59;98741.91;;;27.58;49.67
28588;BME280;15787;49.662;10.162;2023-05-21T10:49:44;98744.56;;;27.43;47.23
28588;BME280;15787;49.662;10.162;2023-05-21T10:52:42;98744.53;;;28.24;49.96
28588;BME280;15787;49.662;10.162;2023-05-21T10:55:37;98742.72;;;28.55;49.21
28588;BME280;15787;49.662;10.162;2023-05-21T11:01:21;98740.81;;;29.42;50.91
28588;BME280;15787;49.662;10.162;2023-05-21T11:03:57;98738.16;;;28.39;48.59
28588;BME280;15787;49.662;10.162;2023-05-21T11:06:30;98735.34;;;28.05;48.33
28588;BME280;15787;49.662;10.162;2023-05-21T11:09:11;98740.69;;;27.54;49.75
28588;BME280;15787;49.662;10.162;2023-05-21T11:11:48;98731.25;;;27.07;48.81
28588;BME280;15787;49.662;10.162;2023-05-21T11:14:27;98730.25;;;27.17;48.85
28588;BME280;15787;49.662;10.162;2023-05-21T11:17:07;98728.56;;;28.36;50.38
28588;BME280;15787;49.662;10.162;2023-05-21T11:19:42;98735.81;;;28.58;49.73
28588;BME280;15787;49.662;10.162;2023-05-21T11:22:21;98734.91;;;29.19;49.78
28588;BME280;15787;49.662;10.162;2023-05-21T11:24:57;98735.31;;;29.16;48.64
28588;BME280;15787;49.662;10.162;2023-05-21T11:27:34;98727.78;;;28.77;46.87
28588;BME280;15787;49.662;10.162;2023-05-21T11:30:14;98731.53;;;29.21;49.23
28588;BME280;15787;49.662;10.162;2023-05-21T11:36:00;98735.91;;;29.22;49.87
28588;BME280;15787;49.662;10.162;2023-05-21T11:38:36;98727.25;;;29.58;48.33
28588;BME280;15787;49.662;10.162;2023-05-21T11:41:10;98717.69;;;29.63;48.00
28588;BME280;15787;49.662;10.162;2023-05-21T11:43:43;98719.69;;;29.04;48.18
28588;BME280;15787;49.662;10.162;2023-05-21T11:46:18;98721.47;;;30.09;48.21
28588;BME280;15787;49.662;10.162;2023-05-21T11:49:20;98714.44;;;30.40;47.79
28588;BME280;15787;49.662;10.162;2023-05-21T11:51:56;98716.88;;;30.05;48.83
28588;BME280;15787;49.662;10.162;2023-05-21T11:54:31;98711.09;;;29.98;48.67
28588;BME280;15787;49.662;10.162;2023-05-21T11:57:08;98715.00;;;28.16;47.72
28588;BME280;15787;49.662;10.162;2023-05-21T11:59:44;98708.19;;;28.68;47.91
28588;BME280;15787;49.662;10.162;2023-05-21T12:02:20;98715.44;;;29.76;48.34
28588;BME280;15787;49.662;10.162;2023-05-21T12:04:54;98709.22;;;29.57;45.42
28588;BME280;15787;49.662;10.162;2023-05-21T12:07:31;98719.50;;;28.53;47.27
28588;BME280;15787;49.662;10.162;2023-05-21T12:10:05;98713.72;;;29.30;46.49
28588;BME280;15787;49.662;10.162;2023-05-21T12:12:58;98719.38;;;30.01;45.37
28588;BME280;15787;49.662;10.162;2023-05-21T12:15:36;98722.09;;;29.56;46.15
28588;BME280;15787;49.662;10.162;2023-05-21T12:18:11;98713.50;;;28.23;44.38
28588;BME280;15787;49.662;10.162;2023-05-21T12:20:49;98722.31;;;28.45;45.98
28588;BME280;15787;49.662;10.162;2023-05-21T12:23:23;98718.97;;;28.13;46.10
28588;BME280;15787;49.662;10.162;2023-05-21T12:26:01;98713.22;;;28.54;46.28
28588;BME280;15787;49.662;10.162;2023-05-21T12:28:37;98708.91;;;27.86;45.23
28588;BME280;15787;49.662;10.162;2023-05-21T12:31:13;98715.81;;;28.03;44.68
28588;BME280;15787;49.662;10.162;2023-05-21T12:33:49;98714.13;;;28.49;48.11
28588;BME280;15787;49.662;10.162;2023-05-21T12:36:25;98721.91;;;28.90;45.41
28588;BME280;15787;49.662;10.162;2023-05-21T12:38:58;98716.63;;;28.53;43.79
28588;BME280;15787;49.662;10.162;2023-05-21T12:41:32;98723.53;;;28.70;43.95
28588;BME280;15787;49.662;10.162;2023-05-21T12:44:05;98715.44;;;29.76;44.20
28588;BME280;15787;49.662;10.162;2023-05-21T12:46:40;98715.88;;;29.37;42.82
28588;BME280;15787;49.662;10.162;2023-05-21T12:49:36;98716.56;;;28.94;43.96
28588;BME280;15787;49.662;10.162;2023-05-21T12:52:10;98705.94;;;29.46;44.20
28588;BME280;15787;49.662;10.162;2023-05-21T12:54:45;98709.97;;;30.24;44.66
28588;BME280;15787;49.662;10.162;2023-05-21T12:57:25;98713.44;;;30.22;43.64
28588;BME280;15787;49.662;10.162;2023-05-21T13:00:02;98722.97;;;29.87;45.21
28588;BME280;15787;49.662;10.162;2023-05-21T13:02:39;98723.97;;;29.97;44.00
28588;BME280;15787;49.662;10.162;2023-05-21T13:05:16;98714.41;;;28.17;42.80
28588;BME280;15787;49.662;10.162;2023-05-21T13:07:50;98711.84;;;29.40;44.10
28588;BME280;15787;49.662;10.162;2023-05-21T13:10:23;98714.16;;;29.06;42.77
28588;BME280;15787;49.662;10.162;2023-05-21T13:12:57;98720.66;;;28.50;41.84
28588;BME280;15787;49.662;10.162;2023-05-21T13:15:31;98714.22;;;29.49;43.69
28588;BME280;15787;49.662;10.162;2023-05-21T13:18:04;98715.69;;;29.93;44.03
28588;BME280;15787;49.662;10.162;2023-05-21T13:20:38;98699.22;;;30.32;43.90
28588;BME280;15787;49.662;10.162;2023-05-21T13:23:11;98706.19;;;29.63;43.03
28588;BME280;15787;49.662;10.162;2023-05-21T13:25:44;98710.69;;;29.79;43.12
28588;BME280;15787;49.662;10.162;2023-05-21T13:28:17;98716.13;;;28.83;43.54
28588;BME280;15787;49.662;10.162;2023-05-21T13:30:50;98715.19;;;29.59;45.83
28588;BME280;15787;49.662;10.162;2023-05-21T13:33:25;98709.00;;;30.21;46.66
28588;BME280;15787;49.662;10.162;2023-05-21T13:36:06;98704.41;;;30.86;46.24